Wednesday, August 20, 2014
18:37 UTC
  |  Log In   |  Register Free
Airport Search:

Pearson Field Airport
(KVUO)

Pearson Field Airport Diagram
No Airport Diagram Available

FAA data valid effective July 24, 2014 until September 18, 2014 (unless otherwise noted).

 
 
 
 
 
 
 
 
 
 
 
 
 
 

Current Aviation Weather for Pearson Field Airport (KVUO)

The most recent METAR observation for KVUO was updated at: 1853 UTC
METAR Summary (Translated METAR)
KVUO
281853Z AUTO VRB06KT 10SM CLR 26/14 A3006 RMK AO2 SLP180 T02560144
KPDX
(3.1 nm SE from KVUO)
281853Z VRB05KT 10SM CLR 26/14 A3007 RMK AO2 SLP181 T02560144
TAF Summary (Translated TAF)
KPDX
(3.1 nm SE from KVUO)
201750Z 2018/2118 36003KT P6SM FEW027 BKN035 BKN100 FM201900 32006KT P6SM SCT035 BKN045 FM202300 32010KT P6SM SCT050 FM210700 30005KT P6SM BKN045 FM211300 31005KT P6SM BKN030
KTTD
(11.5 nm SE from KVUO)
201750Z 2018/2118 VRB03KT P6SM OVC030 FM202000 28006KT P6SM SCT035 BKN045 FM210700 VRB02KT P6SM BKN045 FM211300 VRB02KT P6SM BKN025
  Airport Weather Conditions for KVUO

 Current Weather at VUO
67° F
Mostly Cloudy
Variable winds at 5.8 mph
VUO NOAA Radar

Pressure: 29.99 in
Humidity: 49%
Wind: Variable at 5.8 MPH (5 KT)
Dew Point: 46.9°F
Visibility: 10.00 mi


Airport Weather Forecast for KVUO

Translated METAR and TAF for KVUO
Translated METAR for KVUO (1830 UTC 20 August 2014)
found at http://aviationweather.gov/adds/metars/
 
METAR text: KVUO 201753Z AUTO VRB05KT 10SM BKN040 19/08 A2999 RMK AO2 SLP155 T01940083 10194 20161 51006
Conditions at: KVUO (VANCOUVER , WA, US) observed 1753 UTC 20 August 2014
Temperature: 19.4°C (67°F)
Dewpoint: 8.3°C (47°F) [RH = 49%]
Pressure (altimeter): 29.99 inches Hg (1015.7 mb)
[Sea-level pressure: 1015.5 mb]
Winds: variable direction winds at 6 MPH (5 knots; 2.6 m/s)
Visibility: 10 or more miles (16+ km)
Ceiling: 4000 feet AGL
Clouds: broken clouds at 4000 feet AGL
Weather: automated observation with no human augmentation;
there may or may not be significant weather present at this time
Translated TAF for KVUO

There is no translated TAF available for this airport

Find All Airport Services Find A Hotel Find A Rental Car Find A Golf Course Find A Restaurant $100 Hamburger



FBO's on the Field
FBO Company Facility Photos Services Transportation Aviation Fuel Prices: Prices include tax
Catering Weather Repair Courtesy Rental Type 100LL JetA JetA+ MOGAS 8087
 
Aero Maintenance Inc

This FBO has not yet been rated
FS:AirBP
Last Updated: Aug-13
Login to update fuel prices
SS:
Contact Aero Maintenance IncMore FBO Information
 
Add another FBO Facility Photos Catering Weather Repair Courtesy Rental Type 100LL JetA JetA+ MOGAS 8087
Services Transportation Aviation Fuel Prices: Prices include tax


GlobalAir.com Airport Resource Center model-print
model-print
model-print
model-print